createdAt,value
2017-02-27T00:00:56.406Z,960.66
2017-02-27T00:02:05.939Z,960.71
2017-02-27T00:03:15.517Z,960.69
2017-02-27T00:04:25.479Z,960.74
2017-02-27T00:05:34.624Z,960.74
2017-02-27T00:06:44.195Z,960.68
2017-02-27T00:07:53.771Z,960.68
2017-02-27T00:09:02.957Z,960.69
2017-02-27T00:10:12.132Z,960.66
2017-02-27T00:11:21.634Z,960.7
2017-02-27T00:12:31.191Z,960.66
2017-02-27T00:13:41.170Z,960.71
2017-02-27T00:14:50.406Z,960.71
2017-02-27T00:16:00.748Z,960.66
2017-02-27T00:17:10.330Z,960.64
2017-02-27T00:18:20.695Z,960.64
2017-02-27T00:19:30.253Z,960.61
2017-02-27T00:20:40.622Z,960.59
2017-02-27T00:21:50.569Z,960.57
2017-02-27T00:22:59.739Z,960.66
2017-02-27T00:24:09.652Z,960.63
2017-02-27T00:25:18.840Z,960.61
2017-02-27T00:26:28.047Z,960.63
2017-02-27T00:27:38.088Z,960.58
2017-02-27T00:28:47.642Z,960.57
2017-02-27T00:29:56.482Z,960.55
2017-02-27T00:31:06.447Z,960.58
2017-02-27T00:32:16.029Z,960.54
2017-02-27T00:33:25.236Z,960.55
2017-02-27T00:34:35.571Z,960.5
2017-02-27T00:35:44.699Z,960.57
2017-02-27T00:36:53.828Z,960.57
2017-02-27T00:38:03.774Z,960.56
2017-02-27T00:39:13.350Z,960.55
2017-02-27T00:40:23.326Z,960.57
2017-02-27T00:41:33.286Z,960.56
2017-02-27T00:42:42.852Z,960.54
2017-02-27T00:43:52.489Z,960.61
2017-02-27T00:45:02.114Z,960.54
2017-02-27T00:46:11.689Z,960.51
2017-02-27T00:47:20.906Z,960.5
2017-02-27T00:48:30.866Z,960.53
2017-02-27T00:49:40.733Z,960.48
2017-02-27T00:50:49.929Z,960.46
2017-02-27T00:51:59.082Z,960.51
2017-02-27T00:53:09.030Z,960.42
2017-02-27T00:54:18.984Z,960.41
2017-02-27T00:55:28.592Z,960.44
2017-02-27T00:56:38.537Z,960.4
2017-02-27T00:57:48.057Z,960.35
2017-02-27T00:58:57.230Z,960.37
2017-02-27T01:00:06.808Z,960.38
2017-02-27T01:01:16.754Z,960.37
2017-02-27T01:02:26.304Z,960.36
2017-02-27T01:03:35.812Z,960.31
2017-02-27T01:04:46.199Z,960.32
2017-02-27T01:05:55.373Z,960.41
2017-02-27T01:07:04.167Z,960.31
2017-02-27T01:08:13.768Z,960.31
2017-02-27T01:09:24.491Z,960.29
2017-02-27T01:10:34.056Z,960.28
2017-02-27T01:11:43.632Z,960.25
2017-02-27T01:12:52.807Z,960.21
2017-02-27T01:14:01.993Z,960.27
2017-02-27T01:15:11.579Z,960.23
2017-02-27T01:16:21.538Z,960.23
2017-02-27T01:17:32.260Z,960.25
2017-02-27T01:18:41.830Z,960.24
2017-02-27T01:19:51.029Z,960.24
2017-02-27T01:21:00.544Z,960.17
2017-02-27T01:22:10.706Z,960.26
2017-02-27T01:23:20.235Z,960.24
2017-02-27T01:24:30.196Z,960.17
2017-02-27T01:25:39.802Z,960.18
2017-02-27T01:26:49.777Z,960.22
2017-02-27T01:27:59.354Z,960.15
2017-02-27T01:29:09.318Z,960.1
2017-02-27T01:30:19.284Z,960.14
2017-02-27T01:31:28.489Z,960.11
2017-02-27T01:32:37.682Z,960.09
2017-02-27T01:33:47.649Z,960.1
2017-02-27T01:53:46.656Z,959.82
2017-02-27T01:54:55.853Z,959.81
2017-02-27T01:56:04.600Z,959.76
2017-02-27T01:57:14.174Z,959.78
2017-02-27T01:58:23.698Z,959.78
2017-02-27T01:59:32.879Z,959.74
2017-02-27T02:00:42.800Z,959.81
2017-02-27T02:01:51.611Z,959.73
2017-02-27T02:03:01.188Z,959.73
2017-02-27T02:04:10.765Z,959.72
2017-02-27T02:05:20.730Z,959.7
2017-02-27T02:06:30.318Z,959.7
2017-02-27T02:07:40.274Z,959.67
2017-02-27T02:08:49.855Z,959.67
2017-02-27T02:09:58.674Z,959.65
2017-02-27T02:11:07.859Z,959.62
2017-02-27T02:12:18.223Z,959.62
2017-02-27T02:13:27.392Z,959.57
2017-02-27T02:14:37.304Z,959.55
2017-02-27T02:15:47.277Z,959.6
2017-02-27T02:16:57.226Z,959.57
2017-02-27T02:18:07.583Z,959.54
2017-02-27T02:19:17.132Z,959.52
2017-02-27T02:20:26.636Z,959.54
2017-02-27T02:21:36.591Z,959.5
2017-02-27T02:22:46.180Z,959.49
2017-02-27T02:23:56.159Z,959.54
2017-02-27T02:25:06.509Z,959.45
2017-02-27T02:26:16.876Z,959.45
2017-02-27T02:27:26.852Z,959.43
2017-02-27T02:28:36.403Z,959.44
2017-02-27T02:29:45.615Z,959.45
2017-02-27T02:30:54.414Z,959.37
2017-02-27T02:32:04.397Z,959.38
2017-02-27T02:33:14.352Z,959.38
2017-02-27T02:34:24.335Z,959.32
2017-02-27T02:35:34.315Z,959.34
2017-02-27T02:36:44.666Z,959.3
2017-02-27T02:37:54.616Z,959.35
2017-02-27T02:39:04.225Z,959.37
2017-02-27T02:40:14.566Z,959.28
2017-02-27T02:41:24.546Z,959.27
2017-02-27T02:42:34.114Z,959.22
2017-02-27T02:43:43.883Z,959.23
2017-02-27T02:44:53.019Z,959.19
2017-02-27T02:46:02.593Z,959.16
2017-02-27T02:47:12.174Z,959.13
2017-02-27T02:48:22.503Z,959.1
2017-02-27T02:49:32.448Z,959.07
2017-02-27T02:50:42.058Z,959.01
2017-02-27T02:51:51.627Z,959.05
2017-02-27T02:53:01.185Z,959.03
2017-02-27T02:54:10.722Z,959.01
2017-02-27T02:55:19.465Z,958.98
2017-02-27T02:56:29.797Z,958.95
2017-02-27T02:57:39.026Z,958.95
2017-02-27T02:58:48.557Z,958.96
2017-02-27T02:59:57.382Z,958.98
2017-02-27T03:01:07.738Z,958.95
2017-02-27T03:02:18.127Z,958.9
2017-02-27T03:03:27.320Z,958.84
2017-02-27T03:04:36.868Z,958.86
2017-02-27T03:05:45.697Z,958.85
2017-02-27T03:06:55.594Z,958.86
2017-02-27T03:08:05.631Z,958.77
2017-02-27T03:09:14.791Z,958.75
2017-02-27T03:10:24.330Z,958.79
2017-02-27T03:11:34.278Z,958.72
2017-02-27T03:12:43.860Z,958.73
2017-02-27T03:13:53.440Z,958.66
2017-02-27T03:15:03.395Z,958.64
2017-02-27T03:16:13.739Z,958.59
2017-02-27T03:17:23.330Z,958.58
2017-02-27T03:18:33.308Z,958.66
2017-02-27T03:19:42.523Z,958.67
2017-02-27T03:20:52.093Z,958.57
2017-02-27T03:22:02.053Z,958.52
2017-02-27T03:23:11.263Z,958.55
2017-02-27T03:24:20.798Z,958.54
2017-02-27T03:25:30.776Z,958.5
2017-02-27T03:26:39.932Z,958.57
2017-02-27T03:27:49.524Z,958.49
2017-02-27T03:28:58.725Z,958.51
2017-02-27T03:30:08.876Z,958.49
2017-02-27T03:31:18.046Z,958.47
2017-02-27T03:32:27.977Z,958.45
2017-02-27T03:33:38.285Z,958.41
2017-02-27T03:34:47.427Z,958.39
2017-02-27T03:35:56.996Z,958.37
2017-02-27T03:37:06.965Z,958.36
2017-02-27T03:38:16.166Z,958.33
2017-02-27T03:39:26.122Z,958.4
2017-02-27T03:40:35.328Z,958.37
2017-02-27T03:41:44.690Z,958.25
2017-02-27T03:42:54.650Z,958.24
2017-02-27T03:44:04.603Z,958.28
2017-02-27T03:45:14.566Z,958.23
2017-02-27T03:46:24.152Z,958.23
2017-02-27T03:47:34.527Z,958.27
2017-02-27T03:48:44.100Z,958.2
2017-02-27T03:49:53.303Z,958.18
2017-02-27T03:51:02.870Z,958.18
2017-02-27T03:52:12.812Z,958.13
2017-02-27T03:53:22.202Z,958.15
2017-02-27T03:54:32.562Z,958.09
2017-02-27T03:55:42.732Z,958.11
2017-02-27T03:56:52.290Z,958.09
2017-02-27T03:58:01.446Z,958.07
2017-02-27T03:59:11.803Z,958.05
2017-02-27T04:00:22.150Z,958.05
2017-02-27T04:01:30.948Z,957.98
2017-02-27T04:02:40.904Z,958.02
2017-02-27T04:03:50.422Z,958.02
2017-02-27T04:05:00.394Z,958
2017-02-27T04:06:09.971Z,958.03
2017-02-27T04:07:19.941Z,958.04
2017-02-27T04:08:29.512Z,957.96
2017-02-27T04:09:39.479Z,957.94
2017-02-27T04:10:48.685Z,958.01
2017-02-27T04:11:58.854Z,957.98
2017-02-27T04:13:08.809Z,957.98
2017-02-27T04:14:17.995Z,958.05
2017-02-27T04:15:27.931Z,957.91
2017-02-27T04:16:37.442Z,957.91
2017-02-27T04:17:47.413Z,957.93
2017-02-27T04:18:57.734Z,957.87
2017-02-27T04:20:07.232Z,957.9
2017-02-27T04:21:17.182Z,957.85
2017-02-27T04:22:26.766Z,957.81
2017-02-27T04:23:36.729Z,957.87
2017-02-27T04:24:46.334Z,957.83
2017-02-27T04:25:55.893Z,957.84
2017-02-27T04:27:05.473Z,957.83
2017-02-27T04:28:15.491Z,957.85
2017-02-27T04:29:24.675Z,957.9
2017-02-27T04:30:33.796Z,957.79
2017-02-27T04:31:42.988Z,957.8
2017-02-27T04:32:52.962Z,957.75
2017-02-27T04:34:02.165Z,957.82
2017-02-27T04:35:11.359Z,957.78
2017-02-27T04:36:21.317Z,957.77
2017-02-27T04:37:30.866Z,957.75
2017-02-27T04:38:40.822Z,957.73
2017-02-27T04:39:50.015Z,957.72
2017-02-27T04:40:59.601Z,957.68
2017-02-27T04:42:09.178Z,957.69
2017-02-27T04:43:19.463Z,957.67
2017-02-27T04:44:29.041Z,957.64
2017-02-27T04:45:37.793Z,957.62
2017-02-27T04:46:47.017Z,957.6
2017-02-27T04:47:56.604Z,957.58
2017-02-27T04:49:05.787Z,957.56
2017-02-27T04:50:15.749Z,957.56
2017-02-27T04:51:25.733Z,957.53
2017-02-27T04:52:35.679Z,957.56
2017-02-27T04:53:44.872Z,957.45
2017-02-27T04:54:54.043Z,957.48
2017-02-27T04:56:04.316Z,957.47
2017-02-27T04:57:13.114Z,957.44
2017-02-27T04:58:22.679Z,957.4
2017-02-27T04:59:32.254Z,957.33
2017-02-27T05:00:41.395Z,957.35
2017-02-27T05:01:50.981Z,957.32
2017-02-27T05:03:00.594Z,957.3
2017-02-27T05:04:09.773Z,957.36
2017-02-27T05:05:19.723Z,957.31
2017-02-27T05:06:29.689Z,957.28
2017-02-27T05:07:39.206Z,957.25
2017-02-27T05:08:48.387Z,957.24
2017-02-27T05:09:57.563Z,957.23
2017-02-27T05:11:07.706Z,957.15
2017-02-27T05:12:17.655Z,957.15
2017-02-27T05:13:27.567Z,957.18
2017-02-27T05:14:36.762Z,957.22
2017-02-27T05:15:46.681Z,957.15
2017-02-27T05:16:56.249Z,957.15
2017-02-27T05:18:05.829Z,957.12
2017-02-27T05:19:15.396Z,957.16
2017-02-27T05:20:25.751Z,957.15
2017-02-27T05:21:35.696Z,957.15
2017-02-27T05:22:45.290Z,957.12
2017-02-27T05:23:54.841Z,957.1
2017-02-27T05:25:04.361Z,957.04
2017-02-27T05:26:13.561Z,957.05
2017-02-27T05:27:23.544Z,957.03
2017-02-27T05:28:33.110Z,957.02
2017-02-27T05:29:42.304Z,956.96
2017-02-27T05:30:52.662Z,956.99
2017-02-27T05:32:02.264Z,956.98
2017-02-27T05:33:12.160Z,956.95
2017-02-27T05:34:21.743Z,956.95
2017-02-27T05:35:30.553Z,956.92
2017-02-27T05:36:40.138Z,956.95
2017-02-27T05:37:50.093Z,956.9
2017-02-27T05:39:00.376Z,956.88
2017-02-27T05:40:09.956Z,956.89
2017-02-27T05:41:18.746Z,956.89
2017-02-27T05:42:28.283Z,956.88
2017-02-27T05:43:38.238Z,956.87
2017-02-27T05:44:47.812Z,956.9
2017-02-27T05:45:57.765Z,956.85
2017-02-27T05:47:07.341Z,956.87
2017-02-27T05:48:16.523Z,956.84
2017-02-27T05:49:25.725Z,956.84
2017-02-27T05:50:34.907Z,956.87
2017-02-27T05:51:44.100Z,956.81
2017-02-27T05:52:53.325Z,956.85
2017-02-27T05:54:02.895Z,956.79
2017-02-27T05:55:12.072Z,956.81
2017-02-27T05:56:22.402Z,956.81
2017-02-27T05:57:31.617Z,956.78
2017-02-27T05:58:41.589Z,956.79
2017-02-27T05:59:51.145Z,956.79
2017-02-27T06:01:01.436Z,956.81
2017-02-27T06:02:11.016Z,956.8
2017-02-27T06:03:20.199Z,956.82
2017-02-27T06:04:29.362Z,956.76
2017-02-27T06:05:38.892Z,956.82
2017-02-27T06:06:49.218Z,956.81
2017-02-27T06:07:59.162Z,956.82
2017-02-27T06:09:08.347Z,956.88
2017-02-27T06:10:17.875Z,956.81
2017-02-27T06:11:27.427Z,956.76
2017-02-27T06:12:36.950Z,956.76
2017-02-27T06:13:46.526Z,956.74
2017-02-27T06:14:55.702Z,956.69
2017-02-27T06:16:06.042Z,956.76
2017-02-27T06:17:15.948Z,956.77
2017-02-27T06:18:25.513Z,956.71
2017-02-27T06:19:35.033Z,956.7
2017-02-27T06:20:45.399Z,956.7
2017-02-27T06:21:54.208Z,956.65
2017-02-27T06:23:04.577Z,956.68
2017-02-27T06:24:13.804Z,956.64
2017-02-27T06:25:23.317Z,956.63
2017-02-27T06:26:32.862Z,956.6
2017-02-27T06:27:42.459Z,956.56
2017-02-27T06:28:51.588Z,956.5
2017-02-27T06:30:01.929Z,956.49
2017-02-27T06:31:11.877Z,956.54
2017-02-27T06:32:21.436Z,956.48
2017-02-27T06:33:31.014Z,956.5
2017-02-27T06:34:39.805Z,956.52
2017-02-27T06:35:49.301Z,956.51
2017-02-27T06:36:58.050Z,956.49
2017-02-27T06:38:07.971Z,956.49
2017-02-27T06:39:17.939Z,956.43
2017-02-27T06:40:27.527Z,956.41
2017-02-27T06:41:36.711Z,956.4
2017-02-27T06:42:46.239Z,956.35
2017-02-27T06:43:56.206Z,956.42
2017-02-27T06:45:06.160Z,956.33
2017-02-27T06:46:16.114Z,956.37
2017-02-27T06:47:24.906Z,956.35
2017-02-27T06:48:34.024Z,956.39
2017-02-27T06:49:43.206Z,956.36
2017-02-27T06:50:53.182Z,956.36
2017-02-27T06:52:02.767Z,956.33
2017-02-27T06:53:12.000Z,956.28
2017-02-27T06:54:21.578Z,956.36
2017-02-27T06:55:31.183Z,956.32
2017-02-27T06:56:40.762Z,956.44
2017-02-27T06:57:50.332Z,956.38
2017-02-27T06:58:59.908Z,956.44
2017-02-27T07:00:09.795Z,956.34
2017-02-27T07:01:18.946Z,956.34
2017-02-27T07:02:28.906Z,956.39
2017-02-27T07:03:38.880Z,956.32
2017-02-27T07:04:48.838Z,956.32
2017-02-27T07:05:58.025Z,956.32
2017-02-27T07:07:07.202Z,956.3
2017-02-27T07:08:17.152Z,956.33
2017-02-27T07:09:26.714Z,956.3
2017-02-27T07:10:36.306Z,956.27
2017-02-27T07:11:46.258Z,956.27
2017-02-27T07:12:56.205Z,956.29
2017-02-27T07:14:05.352Z,956.24
2017-02-27T07:15:15.313Z,956.23
2017-02-27T07:16:24.891Z,956.22
2017-02-27T07:17:34.964Z,956.18
2017-02-27T07:18:44.631Z,956.17
2017-02-27T07:19:54.568Z,956.17
2017-02-27T07:21:04.067Z,956.08
2017-02-27T07:22:13.584Z,956.11
2017-02-27T07:23:22.758Z,956.08
2017-02-27T07:24:33.484Z,956.06
2017-02-27T07:25:43.447Z,956.06
2017-02-27T07:26:52.266Z,956.05
2017-02-27T07:28:01.828Z,956.07
2017-02-27T07:29:11.009Z,956.02
2017-02-27T07:30:20.189Z,956.03
2017-02-27T07:31:28.920Z,956.03
2017-02-27T07:32:38.883Z,956.05
2017-02-27T07:33:48.816Z,955.93
2017-02-27T07:34:57.961Z,955.92
2017-02-27T07:36:07.543Z,955.92
2017-02-27T07:37:17.156Z,955.93
2017-02-27T07:38:27.118Z,955.81
2017-02-27T07:39:36.681Z,955.85
2017-02-27T07:40:45.802Z,955.78
2017-02-27T07:41:55.409Z,955.75
2017-02-27T07:43:05.368Z,955.76
2017-02-27T07:44:14.967Z,955.71
2017-02-27T07:45:24.132Z,955.69
2017-02-27T07:46:33.264Z,955.71
2017-02-27T07:47:42.827Z,955.75
2017-02-27T07:48:52.385Z,955.7
2017-02-27T07:50:01.959Z,955.69
2017-02-27T07:51:11.138Z,955.71
2017-02-27T07:52:19.929Z,955.77
2017-02-27T07:53:29.875Z,955.7
2017-02-27T07:54:38.626Z,955.68
2017-02-27T07:55:47.360Z,955.66
2017-02-27T07:56:57.307Z,955.68
2017-02-27T07:58:06.091Z,955.63
2017-02-27T07:59:15.271Z,955.66
2017-02-27T08:00:24.003Z,955.59
2017-02-27T08:01:33.142Z,955.59
2017-02-27T08:02:42.632Z,955.57
2017-02-27T08:03:52.132Z,955.62
2017-02-27T08:05:02.468Z,955.6
2017-02-27T08:06:12.055Z,955.57
2017-02-27T08:07:21.617Z,955.59
2017-02-27T08:08:31.189Z,955.56
2017-02-27T08:09:40.753Z,955.54
2017-02-27T08:10:50.304Z,955.51
2017-02-27T08:11:59.814Z,955.5
2017-02-27T08:13:09.395Z,955.46
2017-02-27T08:14:18.975Z,955.45
2017-02-27T08:15:28.577Z,955.39
2017-02-27T08:16:37.412Z,955.41
2017-02-27T08:17:46.999Z,955.4
2017-02-27T08:18:57.336Z,955.39
2017-02-27T08:20:06.603Z,955.39
2017-02-27T08:21:15.760Z,955.33
2017-02-27T08:22:24.574Z,955.33
2017-02-27T08:23:34.157Z,955.26
2017-02-27T08:24:43.748Z,955.27
2017-02-27T08:25:53.307Z,955.18
2017-02-27T08:27:03.653Z,955.12
2017-02-27T08:28:13.240Z,955.14
2017-02-27T08:29:22.822Z,955.11
2017-02-27T08:30:32.009Z,955.24
2017-02-27T08:31:41.189Z,955.1
2017-02-27T08:32:50.768Z,955.08
2017-02-27T08:34:00.347Z,955.07
2017-02-27T08:35:10.322Z,955.02
2017-02-27T08:36:19.914Z,955.02
2017-02-27T08:37:29.468Z,955.09
2017-02-27T08:38:39.823Z,954.99
2017-02-27T08:39:48.642Z,955.03
2017-02-27T08:40:57.435Z,954.98
2017-02-27T08:42:07.338Z,954.96
2017-02-27T08:43:17.291Z,954.97
2017-02-27T08:44:27.586Z,954.95
2017-02-27T08:45:37.152Z,954.94
2017-02-27T08:46:46.662Z,954.89
2017-02-27T08:47:56.639Z,954.89
2017-02-27T08:49:06.571Z,954.94
2017-02-27T08:50:16.530Z,954.87
2017-02-27T08:51:26.113Z,954.86
2017-02-27T08:52:35.323Z,954.85
2017-02-27T08:53:45.811Z,954.77
2017-02-27T08:54:55.341Z,954.87
2017-02-27T08:56:04.517Z,954.75
2017-02-27T08:57:13.310Z,954.75
2017-02-27T08:58:22.872Z,954.79
2017-02-27T08:59:32.014Z,954.71
2017-02-27T09:00:42.002Z,954.69
2017-02-27T09:01:51.579Z,954.7
2017-02-27T09:03:01.592Z,954.68
2017-02-27T09:04:11.500Z,954.74
2017-02-27T09:05:21.851Z,954.64
2017-02-27T09:06:30.594Z,954.64
2017-02-27T09:07:39.807Z,954.66
2017-02-27T09:08:49.315Z,954.64
2017-02-27T09:09:58.912Z,954.69
2017-02-27T09:11:08.893Z,954.61
2017-02-27T09:12:18.845Z,954.64
2017-02-27T09:13:28.042Z,954.59
2017-02-27T09:14:37.934Z,954.61
2017-02-27T09:15:47.912Z,954.6
2017-02-27T09:16:57.510Z,954.56
2017-02-27T09:18:07.092Z,954.52
2017-02-27T09:19:17.453Z,954.59
2017-02-27T09:20:27.015Z,954.59
2017-02-27T09:21:36.590Z,954.56
2017-02-27T09:22:46.601Z,954.48
2017-02-27T09:23:55.788Z,954.62
2017-02-27T09:25:05.745Z,954.59
2017-02-27T09:26:15.632Z,954.57
2017-02-27T09:27:25.980Z,954.56
2017-02-27T09:28:35.552Z,954.55
2017-02-27T09:29:45.134Z,954.52
2017-02-27T09:30:54.318Z,954.57
2017-02-27T09:32:03.823Z,954.5
2017-02-27T09:33:13.048Z,954.47
2017-02-27T09:34:23.030Z,954.47
2017-02-27T09:35:32.983Z,954.51
2017-02-27T09:36:42.130Z,954.51
2017-02-27T09:37:51.305Z,954.46
2017-02-27T09:39:00.905Z,954.49
2017-02-27T09:40:11.657Z,954.42
2017-02-27T09:41:21.618Z,954.35
2017-02-27T09:42:31.184Z,954.3
2017-02-27T09:43:41.087Z,954.3
2017-02-27T09:44:50.833Z,954.34
2017-02-27T09:46:00.437Z,954.26
2017-02-27T09:47:10.801Z,954.25
2017-02-27T09:48:20.748Z,954.29
2017-02-27T09:49:29.925Z,954.27
2017-02-27T09:50:39.896Z,954.24
2017-02-27T09:51:49.480Z,954.23
2017-02-27T09:52:59.410Z,954.19
2017-02-27T09:54:08.558Z,954.18
2017-02-27T09:55:18.539Z,954.21
2017-02-27T09:56:27.742Z,954.15
2017-02-27T09:57:37.718Z,954.13
2017-02-27T09:58:47.310Z,954.11
2017-02-27T09:59:57.271Z,954.14
2017-02-27T10:01:07.600Z,954.06
2017-02-27T10:02:17.540Z,954.05
2017-02-27T10:03:27.900Z,954.1
2017-02-27T10:04:37.468Z,954.01
2017-02-27T10:05:47.442Z,954
2017-02-27T10:06:57.413Z,953.95
2017-02-27T10:08:06.986Z,953.92
2017-02-27T10:09:15.784Z,953.9
2017-02-27T10:10:25.728Z,953.92
2017-02-27T10:11:35.327Z,953.81
2017-02-27T10:12:45.283Z,953.75
2017-02-27T10:13:54.486Z,953.74
2017-02-27T10:15:04.482Z,953.73
2017-02-27T10:16:14.437Z,953.72
2017-02-27T10:17:24.423Z,953.69
2017-02-27T10:18:33.979Z,953.64
2017-02-27T10:19:43.612Z,953.59
2017-02-27T10:20:53.182Z,953.6
2017-02-27T10:22:02.378Z,953.54
2017-02-27T10:23:12.322Z,953.51
2017-02-27T10:24:21.933Z,953.43
2017-02-27T10:25:32.286Z,953.51
2017-02-27T10:26:41.891Z,953.37
2017-02-27T10:27:51.469Z,953.42
2017-02-27T10:29:01.039Z,953.4
2017-02-27T10:30:10.996Z,953.36
2017-02-27T10:31:20.974Z,953.36
2017-02-27T10:32:30.143Z,953.25
2017-02-27T10:33:40.091Z,953.22
2017-02-27T10:34:50.752Z,953.15
2017-02-27T10:36:00.561Z,953.2
2017-02-27T10:37:10.140Z,953.2
2017-02-27T10:38:19.720Z,953.2
2017-02-27T10:39:29.219Z,953.09
2017-02-27T10:40:39.587Z,953.15
2017-02-27T10:41:48.764Z,953.22
2017-02-27T10:42:58.740Z,953.12
2017-02-27T10:44:09.049Z,953.1
2017-02-27T10:45:18.616Z,953.08
2017-02-27T10:46:28.187Z,953
2017-02-27T10:47:37.318Z,953.02
2017-02-27T10:48:47.647Z,953.04
2017-02-27T10:49:57.631Z,952.99
2017-02-27T10:51:07.621Z,952.96
2017-02-27T10:52:17.173Z,953.04
2017-02-27T10:53:26.698Z,952.91
2017-02-27T10:54:36.223Z,952.91
2017-02-27T10:55:44.977Z,952.83
2017-02-27T10:56:54.935Z,952.87
2017-02-27T10:58:04.124Z,952.88
2017-02-27T10:59:13.682Z,952.79
2017-02-27T11:00:22.910Z,952.9
2017-02-27T11:01:33.245Z,952.86
2017-02-27T11:02:43.603Z,952.78
2017-02-27T11:03:53.561Z,952.75
2017-02-27T11:05:03.559Z,952.8
2017-02-27T11:06:12.753Z,952.71
2017-02-27T11:07:22.733Z,952.82
2017-02-27T11:08:32.739Z,952.7
2017-02-27T11:09:42.317Z,952.71
2017-02-27T11:10:52.302Z,952.77
2017-02-27T11:12:02.257Z,952.78
2017-02-27T11:13:11.837Z,952.77
2017-02-27T11:14:22.129Z,952.74
2017-02-27T11:15:31.312Z,952.72
2017-02-27T11:16:40.433Z,952.67
2017-02-27T11:17:50.355Z,952.6
2017-02-27T11:19:00.649Z,952.59
2017-02-27T11:20:10.231Z,952.59
2017-02-27T11:21:19.796Z,952.56
2017-02-27T11:22:29.782Z,952.6
2017-02-27T11:23:38.997Z,952.46
2017-02-27T11:24:48.585Z,952.46
2017-02-27T11:25:57.778Z,952.48
2017-02-27T11:27:07.384Z,952.32
2017-02-27T11:28:16.965Z,952.37
2017-02-27T11:29:26.133Z,952.38
2017-02-27T11:30:35.279Z,952.4
2017-02-27T11:31:44.839Z,952.28
2017-02-27T11:32:54.405Z,952.28
2017-02-27T11:34:04.348Z,952.21
2017-02-27T11:35:13.488Z,952.27
2017-02-27T11:36:22.660Z,952.22
2017-02-27T11:37:31.822Z,952.21
2017-02-27T11:38:41.355Z,952.14
2017-02-27T11:39:50.947Z,952.13
2017-02-27T11:41:00.531Z,952.09
2017-02-27T11:42:10.094Z,952.06
2017-02-27T11:43:19.682Z,952.04
2017-02-27T11:44:29.632Z,951.95
2017-02-27T11:45:38.384Z,951.94
2017-02-27T11:46:48.375Z,951.98
2017-02-27T11:47:57.968Z,951.93
2017-02-27T11:49:08.313Z,951.88
2017-02-27T11:50:17.866Z,951.82
2017-02-27T11:51:27.055Z,951.83
2017-02-27T11:52:37.434Z,951.74
2017-02-27T11:53:47.016Z,951.76
2017-02-27T11:54:57.763Z,951.71
2017-02-27T11:56:07.734Z,951.68
2017-02-27T11:57:18.082Z,951.68
2017-02-27T11:58:27.597Z,951.64
2017-02-27T11:59:37.201Z,951.49
2017-02-27T12:00:46.746Z,951.53
2017-02-27T12:01:55.872Z,951.48
2017-02-27T12:03:05.052Z,951.54
2017-02-27T12:04:15.014Z,951.52
2017-02-27T12:05:24.803Z,951.6
2017-02-27T12:06:33.941Z,951.44
2017-02-27T12:07:43.546Z,951.37
2017-02-27T12:08:52.725Z,951.39
2017-02-27T12:10:02.307Z,951.35
2017-02-27T12:11:12.087Z,951.35
2017-02-27T12:12:22.434Z,951.25
2017-02-27T12:13:32.785Z,951.2
2017-02-27T12:14:43.073Z,951.25
2017-02-27T12:15:53.817Z,951.23
2017-02-27T12:17:04.090Z,951.23
2017-02-27T12:18:13.285Z,951.23
2017-02-27T12:19:22.474Z,951.07
2017-02-27T12:20:32.446Z,951.12
2017-02-27T12:21:42.422Z,950.99
2017-02-27T12:22:51.638Z,951.03
2017-02-27T12:24:00.816Z,951
2017-02-27T12:25:09.573Z,951.03
2017-02-27T12:26:19.168Z,950.93
2017-02-27T12:27:28.378Z,950.94
2017-02-27T12:28:37.961Z,950.93
2017-02-27T12:29:48.683Z,950.89
2017-02-27T12:30:58.265Z,950.93
2017-02-27T12:32:07.818Z,950.88
2017-02-27T12:33:16.940Z,950.82
2017-02-27T12:34:26.546Z,950.9
2017-02-27T12:35:36.902Z,950.8
2017-02-27T12:36:47.239Z,950.83
2017-02-27T12:37:57.199Z,950.9
2017-02-27T12:39:07.144Z,950.66
2017-02-27T12:40:16.318Z,950.62
2017-02-27T12:41:26.296Z,950.59
2017-02-27T12:42:36.253Z,950.54
2017-02-27T12:43:46.596Z,950.55
2017-02-27T12:44:56.554Z,950.56
2017-02-27T12:46:07.252Z,950.51
2017-02-27T12:47:17.225Z,950.5
2017-02-27T12:48:27.187Z,950.41
2017-02-27T12:49:37.564Z,950.52
2017-02-27T12:50:47.930Z,950.37
2017-02-27T12:51:57.538Z,950.35
2017-02-27T12:53:07.882Z,950.32
2017-02-27T12:54:17.839Z,950.35
2017-02-27T12:55:27.437Z,950.34
2017-02-27T12:56:36.631Z,950.27
2017-02-27T12:57:46.474Z,950.21
2017-02-27T12:58:56.433Z,950.16
2017-02-27T13:00:06.759Z,950.16
2017-02-27T13:01:15.891Z,950.14
2017-02-27T13:02:26.242Z,949.97
2017-02-27T13:03:35.806Z,950.01
2017-02-27T13:04:45.800Z,949.87
2017-02-27T13:05:56.086Z,949.86
2017-02-27T13:07:05.259Z,949.81
2017-02-27T13:08:14.834Z,949.79
2017-02-27T13:09:23.962Z,949.86
2017-02-27T13:10:33.545Z,949.98
2017-02-27T13:11:43.173Z,949.85
2017-02-27T13:12:53.537Z,949.8
2017-02-27T13:14:03.109Z,949.82
2017-02-27T13:15:12.703Z,949.78
2017-02-27T13:16:21.916Z,949.77
2017-02-27T13:17:31.524Z,949.75
2017-02-27T13:18:41.700Z,949.75
2017-02-27T13:19:51.293Z,949.8
2017-02-27T13:21:00.473Z,949.74
2017-02-27T13:22:10.768Z,949.73
2017-02-27T13:23:20.729Z,949.57
2017-02-27T13:24:30.324Z,949.61
2017-02-27T13:25:40.238Z,949.63
2017-02-27T13:26:49.805Z,949.57
2017-02-27T13:27:59.311Z,949.59
2017-02-27T13:29:09.600Z,949.59
2017-02-27T13:30:19.549Z,949.62
2017-02-27T13:31:29.464Z,949.7
2017-02-27T13:32:39.046Z,949.74
2017-02-27T13:33:49.149Z,949.7
2017-02-27T13:34:58.714Z,949.63
2017-02-27T13:36:07.853Z,949.57
2017-02-27T13:37:18.214Z,949.54
2017-02-27T13:38:28.173Z,949.46
2017-02-27T13:39:38.466Z,949.34
2017-02-27T13:40:48.972Z,949.46
2017-02-27T13:41:58.539Z,949.31
2017-02-27T13:43:08.070Z,949.33
2017-02-27T13:44:18.018Z,949.36
2017-02-27T13:45:27.532Z,949.42
2017-02-27T13:46:36.755Z,949.39
2017-02-27T13:47:46.728Z,949.39
2017-02-27T13:48:56.332Z,949.4
2017-02-27T13:50:05.901Z,949.45
2017-02-27T13:51:15.822Z,949.4
2017-02-27T13:52:24.640Z,949.34
2017-02-27T13:53:34.231Z,949.27
2017-02-27T13:54:43.450Z,949.27
2017-02-27T13:55:53.102Z,949.19
2017-02-27T13:57:02.685Z,949.14
2017-02-27T13:58:12.849Z,949.11
2017-02-27T13:59:21.654Z,949.14
2017-02-27T14:00:31.226Z,949.14
2017-02-27T14:01:41.561Z,949.12
2017-02-27T14:02:50.796Z,949.08
2017-02-27T14:04:00.753Z,949.15
2017-02-27T14:05:10.734Z,949.02
2017-02-27T14:06:19.514Z,949.03
2017-02-27T14:07:29.092Z,949.18
2017-02-27T14:08:38.298Z,949.12
2017-02-27T14:09:47.889Z,949.19
2017-02-27T14:10:56.688Z,949.1
2017-02-27T14:12:05.882Z,949.12
2017-02-27T14:13:15.056Z,949.02
2017-02-27T14:14:24.619Z,949.03
2017-02-27T14:15:34.189Z,949.01
2017-02-27T14:16:43.793Z,948.97
2017-02-27T14:17:53.748Z,949.04
2017-02-27T14:19:03.281Z,949.08
2017-02-27T14:20:12.878Z,949.05
2017-02-27T14:21:22.051Z,949.08
2017-02-27T14:22:31.637Z,949
2017-02-27T14:23:42.358Z,949.01
2017-02-27T14:24:52.273Z,948.86
2017-02-27T14:26:02.231Z,948.89
2017-02-27T14:27:11.435Z,948.82
2017-02-27T14:28:21.000Z,948.84
2017-02-27T14:29:30.560Z,948.78
2017-02-27T14:30:40.138Z,948.83
2017-02-27T14:31:50.503Z,948.72
2017-02-27T14:32:59.691Z,948.79
2017-02-27T14:34:09.667Z,948.66
2017-02-27T14:35:18.863Z,948.6
2017-02-27T14:36:28.423Z,948.58
2017-02-27T14:37:37.938Z,948.57
2017-02-27T14:38:47.133Z,948.46
2017-02-27T14:39:56.719Z,948.54
2017-02-27T14:41:06.694Z,948.44
2017-02-27T14:42:15.876Z,948.48
2017-02-27T14:43:25.095Z,948.43
2017-02-27T14:44:34.650Z,948.4
2017-02-27T14:45:43.827Z,948.4
2017-02-27T14:46:53.019Z,948.37
2017-02-27T14:48:02.998Z,948.43
2017-02-27T14:49:12.956Z,948.26
2017-02-27T14:50:22.912Z,948.17
2017-02-27T14:51:32.055Z,948.14